UTA210 UUWW-UWWW
Flight info
| Callsign | UTA210 |
|---|---|
| Flight time | 1h 25m |
| Altitude | 33000 |
| Route | TOGMO M56 ABAGI T794 RUBEK |
| Aircraft | T154/M-SDGRWY/S |
Departure
| Time | 2025-10-05 05:28 |
|---|---|
| Airport | Vnukovo International Airport (UUWW) |
Arrival
| Time | 2025-10-05 06:54 |
|---|---|
| Airport | Kurumoch International Airport (UWWW) |
| Time | Latitude | Longitude | Altitude | Speed | Heading |
|---|---|---|---|---|---|
| 2025-10-05 05:04 | 55.59996 | 37.27986 | 698 ft | 0 kts | 18° |
| 2025-10-05 05:16 | 55.60017 | 37.27998 | 698 ft | 3 kts | 18° |
| 2025-10-05 05:17 | 55.60076 | 37.28008 | 698 ft | 5 kts | 328° |
| 2025-10-05 05:17 | 55.60102 | 37.27875 | 698 ft | 7 kts | 240° |
| 2025-10-05 05:18 | 55.60017 | 37.27732 | 698 ft | 8 kts | 217° |
| 2025-10-05 05:18 | 55.59938 | 37.27566 | 698 ft | 9 kts | 230° |
| 2025-10-05 05:19 | 55.59827 | 37.27359 | 698 ft | 13 kts | 225° |
| 2025-10-05 05:19 | 55.59683 | 37.27090 | 698 ft | 16 kts | 226° |
| 2025-10-05 05:20 | 55.59549 | 37.26829 | 698 ft | 13 kts | 237° |
| 2025-10-05 05:20 | 55.59468 | 37.26506 | 698 ft | 16 kts | 247° |
| 2025-10-05 05:21 | 55.59375 | 37.26096 | 698 ft | 19 kts | 248° |
| 2025-10-05 05:21 | 55.59264 | 37.25601 | 698 ft | 23 kts | 248° |
| 2025-10-05 05:22 | 55.59202 | 37.25322 | 698 ft | 25 kts | 247° |
| 2025-10-05 05:22 | 55.59078 | 37.24768 | 698 ft | 19 kts | 249° |
| 2025-10-05 05:23 | 55.58887 | 37.24040 | 698 ft | 19 kts | 243° |
| 2025-10-05 05:23 | 55.58826 | 37.23831 | 698 ft | 6 kts | 238° |
| 2025-10-05 05:24 | 55.58778 | 37.23801 | 698 ft | 0 kts | 162° |
| 2025-10-05 05:25 | 55.58757 | 37.23813 | 698 ft | 6 kts | 162° |
| 2025-10-05 05:25 | 55.58709 | 37.23843 | 698 ft | 7 kts | 158° |
| 2025-10-05 05:26 | 55.58672 | 37.23980 | 698 ft | 8 kts | 70° |
| 2025-10-05 05:26 | 55.58680 | 37.24017 | 698 ft | 0 kts | 69° |
| 2025-10-05 05:27 | 55.59345 | 37.26908 | 1091 ft | 150 kts | 72° |
| 2025-10-05 05:27 | 55.60119 | 37.30516 | 2196 ft | 169 kts | 77° |
| 2025-10-05 05:28 | 55.60988 | 37.34742 | 3231 ft | 207 kts | 74° |
| 2025-10-05 05:28 | 55.62020 | 37.39934 | 4124 ft | 237 kts | 94° |
| 2025-10-05 05:29 | 55.61674 | 37.42724 | 4736 ft | 236 kts | 124° |
| 2025-10-05 05:29 | 55.59310 | 37.46259 | 6497 ft | 224 kts | 146° |
| 2025-10-05 05:30 | 55.56519 | 37.48592 | 7659 ft | 237 kts | 182° |
| 2025-10-05 05:30 | 55.53780 | 37.45464 | 8982 ft | 256 kts | 233° |
| 2025-10-05 05:31 | 55.50777 | 37.37970 | 11139 ft | 253 kts | 220° |
| 2025-10-05 05:31 | 55.48221 | 37.33843 | 12544 ft | 248 kts | 204° |
| 2025-10-05 05:32 | 55.44912 | 37.33722 | 13583 ft | 258 kts | 154° |
| 2025-10-05 05:32 | 55.43541 | 37.35827 | 14162 ft | 270 kts | 130° |
| 2025-10-05 05:33 | 55.41721 | 37.41934 | 14921 ft | 296 kts | 125° |
| 2025-10-05 05:33 | 55.39384 | 37.47973 | 15892 ft | 303 kts | 133° |
| 2025-10-05 05:34 | 55.36768 | 37.53762 | 17123 ft | 304 kts | 134° |
| 2025-10-05 05:34 | 55.31843 | 37.60458 | 18686 ft | 305 kts | 148° |
| 2025-10-05 05:35 | 55.28363 | 37.64897 | 19648 ft | 316 kts | 147° |
| 2025-10-05 05:35 | 55.24748 | 37.69525 | 20450 ft | 331 kts | 147° |
| 2025-10-05 05:36 | 55.22863 | 37.71937 | 20880 ft | 337 kts | 147° |
| 2025-10-05 05:36 | 55.19022 | 37.76833 | 21652 ft | 351 kts | 147° |
| 2025-10-05 05:37 | 55.15126 | 37.82206 | 22384 ft | 366 kts | 137° |
| 2025-10-05 05:37 | 55.11662 | 37.88909 | 23035 ft | 380 kts | 137° |
| 2025-10-05 05:38 | 55.06072 | 37.99070 | 24031 ft | 396 kts | 137° |
| 2025-10-05 05:39 | 55.00307 | 38.09471 | 25297 ft | 404 kts | 137° |
| 2025-10-05 05:40 | 54.86249 | 38.34472 | 28103 ft | 424 kts | 138° |
| 2025-10-05 05:43 | 54.69812 | 38.70975 | 31727 ft | 436 kts | 157° |
| 2025-10-05 05:44 | 54.51568 | 38.89423 | 32994 ft | 435 kts | 152° |
| 2025-10-05 05:47 | 54.32454 | 39.20421 | 33022 ft | 466 kts | 99° |
| 2025-10-05 05:48 | 54.25702 | 39.56799 | 33016 ft | 460 kts | 116° |
| 2025-10-05 05:51 | 54.14486 | 40.02193 | 33018 ft | 461 kts | 117° |
| 2025-10-05 05:52 | 54.07352 | 40.38485 | 33032 ft | 465 kts | 110° |
| 2025-10-05 05:55 | 53.98986 | 40.85898 | 33032 ft | 466 kts | 111° |
| 2025-10-05 05:56 | 53.92650 | 41.22786 | 33064 ft | 467 kts | 109° |
| 2025-10-05 05:58 | 53.85560 | 41.65111 | 33081 ft | 470 kts | 110° |
| 2025-10-05 06:00 | 53.78274 | 42.07672 | 33105 ft | 472 kts | 111° |
| 2025-10-05 06:02 | 53.70816 | 42.50129 | 33131 ft | 473 kts | 110° |
| 2025-10-05 06:04 | 53.68972 | 42.94207 | 33154 ft | 485 kts | 89° |
| 2025-10-05 06:06 | 53.70839 | 43.33879 | 33169 ft | 487 kts | 89° |
| 2025-10-05 06:08 | 53.73031 | 43.85278 | 33161 ft | 489 kts | 89° |
| 2025-10-05 06:10 | 53.74793 | 44.31067 | 33203 ft | 490 kts | 89° |
| 2025-10-05 06:12 | 53.75764 | 44.71197 | 33173 ft | 491 kts | 91° |
| 2025-10-05 06:14 | 53.76581 | 45.22958 | 33229 ft | 492 kts | 91° |
| 2025-10-05 06:16 | 53.77202 | 45.69144 | 33204 ft | 493 kts | 91° |
| 2025-10-05 06:18 | 53.77641 | 46.15371 | 33261 ft | 494 kts | 91° |
| 2025-10-05 06:20 | 53.77881 | 46.55925 | 33277 ft | 494 kts | 91° |
| 2025-10-05 06:23 | 53.77996 | 47.12125 | 30364 ft | 464 kts | 91° |
| 2025-10-05 06:24 | 53.80035 | 47.49263 | 27259 ft | 446 kts | 84° |
| 2025-10-05 06:26 | 53.82098 | 47.79810 | 24256 ft | 430 kts | 86° |
| 2025-10-05 06:27 | 53.82633 | 47.94572 | 22926 ft | 411 kts | 101° |
| 2025-10-05 06:27 | 53.81890 | 48.03972 | 22093 ft | 402 kts | 98° |
| 2025-10-05 06:27 | 53.81614 | 48.08645 | 21650 ft | 398 kts | 98° |
| 2025-10-05 06:28 | 53.81050 | 48.17842 | 20773 ft | 390 kts | 98° |
| 2025-10-05 06:28 | 53.80497 | 48.26801 | 19900 ft | 383 kts | 98° |
| 2025-10-05 06:29 | 53.79950 | 48.35609 | 19060 ft | 374 kts | 98° |
| 2025-10-05 06:29 | 53.79405 | 48.44255 | 18182 ft | 366 kts | 98° |
| 2025-10-05 06:30 | 53.78869 | 48.52678 | 17375 ft | 357 kts | 98° |
| 2025-10-05 06:31 | 53.78081 | 48.64914 | 16193 ft | 343 kts | 98° |
| 2025-10-05 06:31 | 53.77562 | 48.72857 | 15284 ft | 339 kts | 99° |
| 2025-10-05 06:31 | 53.77304 | 48.76788 | 14818 ft | 336 kts | 99° |
| 2025-10-05 06:32 | 53.76790 | 48.84549 | 13902 ft | 331 kts | 99° |
| 2025-10-05 06:32 | 53.75877 | 48.91989 | 13038 ft | 321 kts | 111° |
| 2025-10-05 06:33 | 53.74637 | 48.99111 | 12182 ft | 315 kts | 108° |
| 2025-10-05 06:33 | 53.74058 | 49.02692 | 11743 ft | 312 kts | 108° |
| 2025-10-05 06:34 | 53.72929 | 49.09621 | 10881 ft | 305 kts | 109° |
| 2025-10-05 06:34 | 53.71287 | 49.19687 | 9771 ft | 290 kts | 108° |
| 2025-10-05 06:35 | 53.70232 | 49.26125 | 9088 ft | 279 kts | 109° |
| 2025-10-05 06:35 | 53.69218 | 49.32291 | 8502 ft | 270 kts | 109° |
| 2025-10-05 06:36 | 53.68225 | 49.38294 | 8057 ft | 264 kts | 109° |
| 2025-10-05 06:36 | 53.67250 | 49.44186 | 7612 ft | 259 kts | 109° |
| 2025-10-05 06:37 | 53.66289 | 49.49971 | 7232 ft | 253 kts | 109° |
| 2025-10-05 06:37 | 53.65819 | 49.52790 | 7076 ft | 251 kts | 109° |
| 2025-10-05 06:38 | 53.64877 | 49.58422 | 6704 ft | 249 kts | 109° |
| 2025-10-05 06:38 | 53.63461 | 49.66869 | 6036 ft | 251 kts | 110° |
| 2025-10-05 06:39 | 53.62526 | 49.72465 | 5667 ft | 248 kts | 110° |
| 2025-10-05 06:39 | 53.61585 | 49.78043 | 5284 ft | 247 kts | 110° |
| 2025-10-05 06:40 | 53.60647 | 49.83575 | 4891 ft | 246 kts | 110° |
| 2025-10-05 06:40 | 53.59707 | 49.89104 | 4514 ft | 245 kts | 110° |
| 2025-10-05 06:41 | 53.59241 | 49.91842 | 4323 ft | 244 kts | 110° |
| 2025-10-05 06:41 | 53.58328 | 49.97258 | 4059 ft | 237 kts | 109° |
| 2025-10-05 06:42 | 53.57462 | 50.02470 | 3963 ft | 224 kts | 110° |
| 2025-10-05 06:42 | 53.55984 | 50.10032 | 3981 ft | 232 kts | 113° |
| 2025-10-05 06:43 | 53.55555 | 50.15437 | 3881 ft | 243 kts | 82° |
| 2025-10-05 06:43 | 53.57505 | 50.19992 | 3470 ft | 252 kts | 30° |
| 2025-10-05 06:44 | 53.60854 | 50.20620 | 2997 ft | 247 kts | 344° |
| 2025-10-05 06:44 | 53.64135 | 50.19022 | 2516 ft | 247 kts | 342° |
| 2025-10-05 06:45 | 53.65762 | 50.18218 | 2413 ft | 244 kts | 343° |
| 2025-10-05 06:45 | 53.68898 | 50.16751 | 2672 ft | 225 kts | 345° |
| 2025-10-05 06:46 | 53.71840 | 50.15083 | 2606 ft | 218 kts | 322° |
| 2025-10-05 06:46 | 53.73174 | 50.08882 | 2344 ft | 184 kts | 243° |
| 2025-10-05 06:47 | 53.71574 | 50.05875 | 2172 ft | 173 kts | 204° |
| 2025-10-05 06:47 | 53.69289 | 50.05768 | 2054 ft | 167 kts | 156° |
| 2025-10-05 06:48 | 53.67359 | 50.07502 | 2048 ft | 151 kts | 155° |
| 2025-10-05 06:48 | 53.66411 | 50.08231 | 2014 ft | 148 kts | 160° |
| 2025-10-05 06:49 | 53.63435 | 50.09866 | 2016 ft | 149 kts | 158° |
| 2025-10-05 06:49 | 53.62471 | 50.10537 | 2008 ft | 146 kts | 160° |
| 2025-10-05 06:50 | 53.60715 | 50.11513 | 1950 ft | 134 kts | 164° |
| 2025-10-05 06:50 | 53.58135 | 50.13099 | 1698 ft | 131 kts | 162° |
| 2025-10-05 06:51 | 53.56408 | 50.14141 | 1368 ft | 134 kts | 163° |
| 2025-10-05 06:51 | 53.54666 | 50.15171 | 1045 ft | 134 kts | 161° |
| 2025-10-05 06:52 | 53.52908 | 50.16204 | 726 ft | 135 kts | 159° |
| 2025-10-05 06:52 | 53.52021 | 50.16760 | 562 ft | 137 kts | 160° |
| 2025-10-05 06:53 | 53.50491 | 50.17661 | 490 ft | 72 kts | 159° |
| 2025-10-05 06:53 | 53.49773 | 50.18092 | 490 ft | 38 kts | 160° |
| 2025-10-05 06:54 | 53.49441 | 50.18291 | 490 ft | 18 kts | 160° |
| 2025-10-05 06:54 | 53.49287 | 50.18180 | 489 ft | 11 kts | 254° |
| 2025-10-05 06:55 | 53.49281 | 50.18148 | 490 ft | 0 kts | 255° |
| 2025-10-05 06:56 | 53.49278 | 50.18126 | 490 ft | 3 kts | 259° |
| 2025-10-05 06:56 | 53.49296 | 50.17986 | 490 ft | 9 kts | 306° |
| 2025-10-05 06:57 | 53.49527 | 50.17820 | 490 ft | 14 kts | 340° |
| 2025-10-05 06:57 | 53.49719 | 50.17701 | 490 ft | 15 kts | 343° |
| 2025-10-05 06:58 | 53.49932 | 50.17576 | 490 ft | 16 kts | 340° |
| 2025-10-05 06:59 | 53.50275 | 50.17371 | 490 ft | 18 kts | 340° |
| 2025-10-05 06:59 | 53.50397 | 50.17298 | 490 ft | 19 kts | 340° |
| 2025-10-05 06:59 | 53.50656 | 50.17142 | 490 ft | 20 kts | 340° |
| 2025-10-05 07:00 | 53.50837 | 50.17028 | 490 ft | 9 kts | 322° |
| 2025-10-05 07:00 | 53.50915 | 50.16838 | 490 ft | 10 kts | 301° |
| 2025-10-05 07:01 | 53.50999 | 50.16610 | 490 ft | 12 kts | 301° |
| 2025-10-05 07:01 | 53.51083 | 50.16380 | 489 ft | 9 kts | 301° |
| 2025-10-05 07:02 | 53.51146 | 50.16202 | 490 ft | 7 kts | 291° |
| 2025-10-05 07:03 | 53.51106 | 50.16000 | 490 ft | 4 kts | 224° |
| 2025-10-05 07:03 | 53.51076 | 50.15989 | 490 ft | 5 kts | 167° |
| 2025-10-05 07:03 | 53.51043 | 50.16013 | 490 ft | 0 kts | 151° |